sensor_id;sensor_type;location;lat;lon;timestamp;P1;durP1;ratioP1;P2;durP2;ratioP2
85508;SDS011;75919;48.506;8.946;2024-02-15T06:32:42;14.63;;;9.27;;
85508;SDS011;75919;48.506;8.946;2024-02-15T06:35:26;11.07;;;7.87;;
85508;SDS011;75919;48.506;8.946;2024-02-15T06:38:11;18.23;;;14.63;;
85508;SDS011;75919;48.506;8.946;2024-02-15T06:40:55;17.03;;;11.80;;
85508;SDS011;75919;48.506;8.946;2024-02-15T06:43:21;19.85;;;13.75;;
85508;SDS011;75919;48.506;8.946;2024-02-15T06:45:46;12.48;;;10.27;;
85508;SDS011;75919;48.506;8.946;2024-02-15T06:48:12;11.57;;;8.70;;
85508;SDS011;75919;48.506;8.946;2024-02-15T06:50:38;37.50;;;22.90;;
85508;SDS011;75919;48.506;8.946;2024-02-15T06:53:04;32.67;;;21.17;;
85508;SDS011;75919;48.506;8.946;2024-02-15T06:55:30;24.97;;;15.70;;
85508;SDS011;75919;48.506;8.946;2024-02-15T06:57:56;24.47;;;13.27;;
85508;SDS011;75919;48.506;8.946;2024-02-15T07:00:22;17.80;;;11.47;;
85508;SDS011;75919;48.506;8.946;2024-02-15T07:02:49;17.97;;;14.23;;
85508;SDS011;75919;48.506;8.946;2024-02-15T07:05:15;18.13;;;11.53;;
85508;SDS011;75919;48.506;8.946;2024-02-15T07:07:42;20.17;;;12.57;;
85508;SDS011;75919;48.506;8.946;2024-02-15T07:10:09;21.73;;;12.90;;
85508;SDS011;75919;48.506;8.946;2024-02-15T07:12:35;19.33;;;14.25;;
85508;SDS011;75919;48.506;8.946;2024-02-15T07:15:03;39.77;;;22.33;;
85508;SDS011;75919;48.506;8.946;2024-02-15T07:17:31;29.77;;;20.33;;
85508;SDS011;75919;48.506;8.946;2024-02-15T07:19:57;24.80;;;17.60;;
85508;SDS011;75919;48.506;8.946;2024-02-15T07:22:23;25.85;;;16.52;;
85508;SDS011;75919;48.506;8.946;2024-02-15T07:24:49;20.80;;;15.25;;
85508;SDS011;75919;48.506;8.946;2024-02-15T07:27:15;19.63;;;15.75;;
85508;SDS011;75919;48.506;8.946;2024-02-15T07:29:40;23.50;;;16.45;;
85508;SDS011;75919;48.506;8.946;2024-02-15T07:32:06;18.88;;;12.50;;
85508;SDS011;75919;48.506;8.946;2024-02-15T07:34:33;15.02;;;11.85;;
85508;SDS011;75919;48.506;8.946;2024-02-15T07:36:59;15.20;;;11.43;;
85508;SDS011;75919;48.506;8.946;2024-02-15T07:39:27;14.75;;;10.82;;
85508;SDS011;75919;48.506;8.946;2024-02-15T07:41:56;10.85;;;7.63;;
85508;SDS011;75919;48.506;8.946;2024-02-15T07:44:24;12.07;;;7.75;;
85508;SDS011;75919;48.506;8.946;2024-02-15T07:46:52;10.05;;;6.90;;
85508;SDS011;75919;48.506;8.946;2024-02-15T07:49:18;7.68;;;6.18;;
85508;SDS011;75919;48.506;8.946;2024-02-15T07:51:44;8.80;;;7.43;;
85508;SDS011;75919;48.506;8.946;2024-02-15T07:54:10;9.10;;;6.65;;
85508;SDS011;75919;48.506;8.946;2024-02-15T07:56:36;11.43;;;6.63;;
85508;SDS011;75919;48.506;8.946;2024-02-15T07:59:03;7.88;;;7.07;;
85508;SDS011;75919;48.506;8.946;2024-02-15T08:01:29;7.80;;;7.00;;
85508;SDS011;75919;48.506;8.946;2024-02-15T08:03:56;7.15;;;6.45;;
85508;SDS011;75919;48.506;8.946;2024-02-15T08:06:22;8.65;;;6.90;;
85508;SDS011;75919;48.506;8.946;2024-02-15T08:08:52;7.93;;;6.78;;
85508;SDS011;75919;48.506;8.946;2024-02-15T08:11:18;12.32;;;7.32;;
85508;SDS011;75919;48.506;8.946;2024-02-15T08:13:49;10.80;;;8.30;;
85508;SDS011;75919;48.506;8.946;2024-02-15T08:16:19;10.65;;;7.40;;
85508;SDS011;75919;48.506;8.946;2024-02-15T08:18:51;6.90;;;5.60;;
85508;SDS011;75919;48.506;8.946;2024-02-15T08:21:32;8.63;;;6.80;;
85508;SDS011;75919;48.506;8.946;2024-02-15T08:24:02;9.10;;;6.10;;
85508;SDS011;75919;48.506;8.946;2024-02-15T08:26:32;7.10;;;6.18;;
85508;SDS011;75919;48.506;8.946;2024-02-15T08:28:58;7.68;;;6.38;;
85508;SDS011;75919;48.506;8.946;2024-02-15T08:31:23;10.63;;;7.78;;
85508;SDS011;75919;48.506;8.946;2024-02-15T08:33:49;8.30;;;7.13;;
85508;SDS011;75919;48.506;8.946;2024-02-15T08:36:15;10.38;;;7.22;;
85508;SDS011;75919;48.506;8.946;2024-02-15T08:38:41;10.38;;;7.28;;
85508;SDS011;75919;48.506;8.946;2024-02-15T08:41:07;8.50;;;7.35;;
85508;SDS011;75919;48.506;8.946;2024-02-15T08:43:33;9.50;;;7.95;;
85508;SDS011;75919;48.506;8.946;2024-02-15T08:45:59;11.30;;;7.60;;
85508;SDS011;75919;48.506;8.946;2024-02-15T08:48:25;9.38;;;6.88;;
85508;SDS011;75919;48.506;8.946;2024-02-15T08:50:51;12.10;;;7.90;;
85508;SDS011;75919;48.506;8.946;2024-02-15T08:53:17;9.52;;;7.18;;
85508;SDS011;75919;48.506;8.946;2024-02-15T08:55:44;8.88;;;6.63;;
85508;SDS011;75919;48.506;8.946;2024-02-15T08:58:10;10.55;;;6.68;;
85508;SDS011;75919;48.506;8.946;2024-02-15T09:00:36;10.32;;;8.30;;
85508;SDS011;75919;48.506;8.946;2024-02-15T09:03:06;8.50;;;6.43;;
85508;SDS011;75919;48.506;8.946;2024-02-15T09:05:32;11.02;;;6.50;;
85508;SDS011;75919;48.506;8.946;2024-02-15T09:07:57;11.88;;;7.10;;
85508;SDS011;75919;48.506;8.946;2024-02-15T09:10:23;9.48;;;6.57;;
85508;SDS011;75919;48.506;8.946;2024-02-15T09:12:49;8.70;;;6.38;;
85508;SDS011;75919;48.506;8.946;2024-02-15T09:15:15;7.22;;;4.70;;
85508;SDS011;75919;48.506;8.946;2024-02-15T09:17:41;5.53;;;4.28;;
85508;SDS011;75919;48.506;8.946;2024-02-15T09:20:09;5.95;;;5.35;;
85508;SDS011;75919;48.506;8.946;2024-02-15T09:25:18;6.30;;;4.50;;
85508;SDS011;75919;48.506;8.946;2024-02-15T09:27:44;10.18;;;6.00;;
85508;SDS011;75919;48.506;8.946;2024-02-15T09:30:10;7.40;;;4.85;;
85508;SDS011;75919;48.506;8.946;2024-02-15T09:32:37;6.88;;;4.55;;
85508;SDS011;75919;48.506;8.946;2024-02-15T09:35:05;5.40;;;4.57;;
85508;SDS011;75919;48.506;8.946;2024-02-15T09:37:38;5.70;;;4.05;;
85508;SDS011;75919;48.506;8.946;2024-02-15T09:40:11;4.32;;;3.92;;
85508;SDS011;75919;48.506;8.946;2024-02-15T09:42:38;7.22;;;4.95;;
85508;SDS011;75919;48.506;8.946;2024-02-15T09:45:05;5.95;;;4.18;;
85508;SDS011;75919;48.506;8.946;2024-02-15T09:47:34;5.32;;;4.20;;
85508;SDS011;75919;48.506;8.946;2024-02-15T09:50:09;4.57;;;3.90;;
85508;SDS011;75919;48.506;8.946;2024-02-15T09:52:40;5.00;;;4.20;;
85508;SDS011;75919;48.506;8.946;2024-02-15T09:55:26;7.90;;;4.40;;
85508;SDS011;75919;48.506;8.946;2024-02-15T09:57:53;4.25;;;3.75;;
85508;SDS011;75919;48.506;8.946;2024-02-15T10:00:19;7.65;;;3.92;;
85508;SDS011;75919;48.506;8.946;2024-02-15T10:02:52;6.25;;;4.20;;
85508;SDS011;75919;48.506;8.946;2024-02-15T10:05:18;6.63;;;4.47;;
85508;SDS011;75919;48.506;8.946;2024-02-15T10:07:45;5.15;;;3.95;;
85508;SDS011;75919;48.506;8.946;2024-02-15T10:10:21;6.30;;;3.90;;
85508;SDS011;75919;48.506;8.946;2024-02-15T10:12:52;5.32;;;4.45;;
85508;SDS011;75919;48.506;8.946;2024-02-15T10:15:34;6.80;;;4.68;;
85508;SDS011;75919;48.506;8.946;2024-02-15T10:18:10;5.50;;;4.43;;
85508;SDS011;75919;48.506;8.946;2024-02-15T10:20:40;4.80;;;4.05;;
85508;SDS011;75919;48.506;8.946;2024-02-15T10:23:09;5.28;;;4.57;;
85508;SDS011;75919;48.506;8.946;2024-02-15T10:25:37;6.45;;;4.85;;
85508;SDS011;75919;48.506;8.946;2024-02-15T10:28:10;5.75;;;4.22;;
85508;SDS011;75919;48.506;8.946;2024-02-15T10:30:40;4.80;;;4.40;;
85508;SDS011;75919;48.506;8.946;2024-02-15T10:33:47;3.90;;;3.50;;
85508;SDS011;75919;48.506;8.946;2024-02-15T10:36:07;5.40;;;4.53;;
85508;SDS011;75919;48.506;8.946;2024-02-15T10:38:34;5.57;;;3.85;;
85508;SDS011;75919;48.506;8.946;2024-02-15T10:41:03;5.65;;;3.45;;
85508;SDS011;75919;48.506;8.946;2024-02-15T10:43:33;4.43;;;3.45;;
85508;SDS011;75919;48.506;8.946;2024-02-15T10:46:02;4.25;;;3.85;;
85508;SDS011;75919;48.506;8.946;2024-02-15T10:48:28;4.05;;;3.53;;
85508;SDS011;75919;48.506;8.946;2024-02-15T10:50:55;4.38;;;3.45;;
85508;SDS011;75919;48.506;8.946;2024-02-15T10:53:26;4.75;;;3.10;;
85508;SDS011;75919;48.506;8.946;2024-02-15T10:55:53;5.55;;;3.28;;
85508;SDS011;75919;48.506;8.946;2024-02-15T10:58:32;4.45;;;3.10;;
85508;SDS011;75919;48.506;8.946;2024-02-15T11:01:03;4.20;;;3.28;;
85508;SDS011;75919;48.506;8.946;2024-02-15T11:03:36;3.00;;;2.67;;
85508;SDS011;75919;48.506;8.946;2024-02-15T11:06:12;3.65;;;2.50;;
85508;SDS011;75919;48.506;8.946;2024-02-15T11:08:40;13.85;;;12.95;;
85508;SDS011;75919;48.506;8.946;2024-02-15T11:11:09;12.60;;;11.90;;
85508;SDS011;75919;48.506;8.946;2024-02-15T11:13:37;13.80;;;12.80;;
85508;SDS011;75919;48.506;8.946;2024-02-15T11:16:03;12.43;;;11.65;;
85508;SDS011;75919;48.506;8.946;2024-02-15T11:18:41;12.35;;;11.55;;
85508;SDS011;75919;48.506;8.946;2024-02-15T11:21:14;11.93;;;11.13;;
85508;SDS011;75919;48.506;8.946;2024-02-15T11:23:40;12.63;;;11.70;;
85508;SDS011;75919;48.506;8.946;2024-02-15T11:29:47;3.20;;;2.70;;
85508;SDS011;75919;48.506;8.946;2024-02-15T11:32:44;3.08;;;2.33;;
85508;SDS011;75919;48.506;8.946;2024-02-15T11:35:23;3.67;;;2.40;;
85508;SDS011;75919;48.506;8.946;2024-02-15T11:40:22;5.13;;;2.58;;
85508;SDS011;75919;48.506;8.946;2024-02-15T11:42:49;3.25;;;2.50;;
85508;SDS011;75919;48.506;8.946;2024-02-15T11:45:18;3.15;;;2.42;;
85508;SDS011;75919;48.506;8.946;2024-02-15T11:47:46;5.32;;;2.90;;
85508;SDS011;75919;48.506;8.946;2024-02-15T11:50:15;4.43;;;3.08;;
85508;SDS011;75919;48.506;8.946;2024-02-15T11:52:45;4.60;;;2.50;;
85508;SDS011;75919;48.506;8.946;2024-02-15T11:55:23;3.05;;;2.53;;
85508;SDS011;75919;48.506;8.946;2024-02-15T11:58:00;6.65;;;2.70;;
85508;SDS011;75919;48.506;8.946;2024-02-15T12:00:37;5.47;;;3.30;;
85508;SDS011;75919;48.506;8.946;2024-02-15T12:03:22;8.02;;;3.20;;
85508;SDS011;75919;48.506;8.946;2024-02-15T12:06:07;4.38;;;2.95;;
85508;SDS011;75919;48.506;8.946;2024-02-15T12:08:52;5.05;;;3.10;;
85508;SDS011;75919;48.506;8.946;2024-02-15T12:11:38;5.05;;;2.97;;
85508;SDS011;75919;48.506;8.946;2024-02-15T12:14:22;4.60;;;2.90;;
85508;SDS011;75919;48.506;8.946;2024-02-15T12:17:07;6.28;;;2.75;;
85508;SDS011;75919;48.506;8.946;2024-02-15T12:19:56;4.00;;;2.88;;
85508;SDS011;75919;48.506;8.946;2024-02-15T12:25:14;5.85;;;2.88;;
85508;SDS011;75919;48.506;8.946;2024-02-15T12:27:42;3.53;;;2.80;;
85508;SDS011;75919;48.506;8.946;2024-02-15T12:30:17;3.13;;;2.83;;
85508;SDS011;75919;48.506;8.946;2024-02-15T12:32:47;6.53;;;3.00;;
85508;SDS011;75919;48.506;8.946;2024-02-15T12:35:14;3.15;;;2.88;;
85508;SDS011;75919;48.506;8.946;2024-02-15T12:37:45;4.18;;;2.92;;
85508;SDS011;75919;48.506;8.946;2024-02-15T12:42:40;3.13;;;2.80;;
85508;SDS011;75919;48.506;8.946;2024-02-15T12:45:14;3.22;;;2.67;;
85508;SDS011;75919;48.506;8.946;2024-02-15T12:47:46;7.50;;;3.05;;
85508;SDS011;75919;48.506;8.946;2024-02-15T12:50:16;4.97;;;3.03;;
85508;SDS011;75919;48.506;8.946;2024-02-15T12:52:42;2.70;;;2.50;;
85508;SDS011;75919;48.506;8.946;2024-02-15T12:55:16;4.03;;;2.35;;
85508;SDS011;75919;48.506;8.946;2024-02-15T12:57:45;2.63;;;2.40;;
85508;SDS011;75919;48.506;8.946;2024-02-15T13:00:27;3.78;;;2.60;;
85508;SDS011;75919;48.506;8.946;2024-02-15T13:03:01;5.72;;;3.00;;
85508;SDS011;75919;48.506;8.946;2024-02-15T13:05:28;2.97;;;2.60;;
85508;SDS011;75919;48.506;8.946;2024-02-15T13:07:55;2.72;;;2.53;;
85508;SDS011;75919;48.506;8.946;2024-02-15T13:10:27;3.63;;;2.72;;
85508;SDS011;75919;48.506;8.946;2024-02-15T13:12:54;3.78;;;2.65;;
85508;SDS011;75919;48.506;8.946;2024-02-15T13:15:20;4.82;;;2.90;;
85508;SDS011;75919;48.506;8.946;2024-02-15T13:17:51;4.40;;;2.80;;
85508;SDS011;75919;48.506;8.946;2024-02-15T13:20:18;3.70;;;2.78;;
85508;SDS011;75919;48.506;8.946;2024-02-15T13:22:52;2.88;;;2.58;;
85508;SDS011;75919;48.506;8.946;2024-02-15T13:25:18;3.38;;;2.67;;
85508;SDS011;75919;48.506;8.946;2024-02-15T13:27:46;4.32;;;2.75;;
85508;SDS011;75919;48.506;8.946;2024-02-15T13:30:12;5.90;;;2.78;;
85508;SDS011;75919;48.506;8.946;2024-02-15T13:32:39;4.30;;;2.65;;
85508;SDS011;75919;48.506;8.946;2024-02-15T13:35:08;3.28;;;2.40;;
85508;SDS011;75919;48.506;8.946;2024-02-15T13:37:47;4.03;;;2.90;;
85508;SDS011;75919;48.506;8.946;2024-02-15T13:40:13;5.18;;;2.55;;
85508;SDS011;75919;48.506;8.946;2024-02-15T13:42:43;6.15;;;2.63;;
85508;SDS011;75919;48.506;8.946;2024-02-15T13:45:14;5.22;;;2.72;;
85508;SDS011;75919;48.506;8.946;2024-02-15T13:47:57;4.32;;;2.60;;
85508;SDS011;75919;48.506;8.946;2024-02-15T13:50:25;3.45;;;3.15;;
85508;SDS011;75919;48.506;8.946;2024-02-15T13:52:53;3.92;;;2.83;;
85508;SDS011;75919;48.506;8.946;2024-02-15T13:55:19;3.90;;;2.65;;
85508;SDS011;75919;48.506;8.946;2024-02-15T13:57:47;4.32;;;2.80;;
85508;SDS011;75919;48.506;8.946;2024-02-15T14:00:16;5.40;;;3.00;;
85508;SDS011;75919;48.506;8.946;2024-02-15T14:05:14;3.25;;;2.70;;
85508;SDS011;75919;48.506;8.946;2024-02-15T14:07:44;6.00;;;2.60;;
85508;SDS011;75919;48.506;8.946;2024-02-15T14:10:11;2.90;;;2.58;;
85508;SDS011;75919;48.506;8.946;2024-02-15T14:12:37;4.55;;;2.63;;
85508;SDS011;75919;48.506;8.946;2024-02-15T14:15:04;3.90;;;2.10;;
85508;SDS011;75919;48.506;8.946;2024-02-15T14:17:30;3.90;;;2.30;;
85508;SDS011;75919;48.506;8.946;2024-02-15T14:19:57;5.13;;;2.42;;
85508;SDS011;75919;48.506;8.946;2024-02-15T14:22:23;5.63;;;2.20;;
85508;SDS011;75919;48.506;8.946;2024-02-15T14:24:54;2.53;;;2.17;;
85508;SDS011;75919;48.506;8.946;2024-02-15T14:27:20;2.45;;;1.80;;
85508;SDS011;75919;48.506;8.946;2024-02-15T14:29:46;4.00;;;2.38;;
85508;SDS011;75919;48.506;8.946;2024-02-15T14:32:31;5.78;;;2.60;;
85508;SDS011;75919;48.506;8.946;2024-02-15T14:35:15;3.58;;;2.40;;
85508;SDS011;75919;48.506;8.946;2024-02-15T14:37:42;3.67;;;2.88;;
85508;SDS011;75919;48.506;8.946;2024-02-15T14:40:09;3.08;;;2.20;;
85508;SDS011;75919;48.506;8.946;2024-02-15T14:42:35;3.33;;;2.50;;
85508;SDS011;75919;48.506;8.946;2024-02-15T14:45:02;2.95;;;2.17;;
85508;SDS011;75919;48.506;8.946;2024-02-15T14:47:29;4.45;;;2.47;;
85508;SDS011;75919;48.506;8.946;2024-02-15T14:49:54;3.17;;;2.45;;
85508;SDS011;75919;48.506;8.946;2024-02-15T14:52:20;2.85;;;2.30;;
85508;SDS011;75919;48.506;8.946;2024-02-15T14:54:46;4.30;;;2.22;;
85508;SDS011;75919;48.506;8.946;2024-02-15T14:57:12;4.47;;;2.70;;
85508;SDS011;75919;48.506;8.946;2024-02-15T14:59:38;2.97;;;2.40;;
85508;SDS011;75919;48.506;8.946;2024-02-15T15:02:05;4.60;;;2.70;;
85508;SDS011;75919;48.506;8.946;2024-02-15T15:04:34;6.13;;;2.92;;
85508;SDS011;75919;48.506;8.946;2024-02-15T15:07:20;5.05;;;3.05;;
85508;SDS011;75919;48.506;8.946;2024-02-15T15:10:04;5.45;;;2.67;;
85508;SDS011;75919;48.506;8.946;2024-02-15T15:12:48;5.10;;;2.75;;
85508;SDS011;75919;48.506;8.946;2024-02-15T15:15:15;2.70;;;2.17;;
85508;SDS011;75919;48.506;8.946;2024-02-15T15:17:43;3.85;;;2.80;;
85508;SDS011;75919;48.506;8.946;2024-02-15T15:20:11;3.13;;;2.67;;
85508;SDS011;75919;48.506;8.946;2024-02-15T15:22:37;4.75;;;2.58;;
85508;SDS011;75919;48.506;8.946;2024-02-15T15:25:04;4.35;;;2.70;;
85508;SDS011;75919;48.506;8.946;2024-02-15T15:27:30;4.38;;;2.25;;
85508;SDS011;75919;48.506;8.946;2024-02-15T15:29:56;4.18;;;2.65;;
85508;SDS011;75919;48.506;8.946;2024-02-15T15:32:22;3.13;;;2.40;;
85508;SDS011;75919;48.506;8.946;2024-02-15T15:34:48;3.92;;;2.35;;
85508;SDS011;75919;48.506;8.946;2024-02-15T15:37:14;4.20;;;2.42;;
85508;SDS011;75919;48.506;8.946;2024-02-15T15:39:41;3.78;;;2.10;;
85508;SDS011;75919;48.506;8.946;2024-02-15T15:42:06;6.75;;;2.47;;
85508;SDS011;75919;48.506;8.946;2024-02-15T15:44:32;2.42;;;2.13;;
85508;SDS011;75919;48.506;8.946;2024-02-15T15:46:59;5.63;;;2.15;;
85508;SDS011;75919;48.506;8.946;2024-02-15T15:49:25;4.38;;;2.78;;
85508;SDS011;75919;48.506;8.946;2024-02-15T15:51:51;4.60;;;2.30;;
85508;SDS011;75919;48.506;8.946;2024-02-15T15:54:18;4.57;;;2.53;;
85508;SDS011;75919;48.506;8.946;2024-02-15T15:56:44;4.13;;;2.35;;
85508;SDS011;75919;48.506;8.946;2024-02-15T15:59:11;4.47;;;2.40;;
85508;SDS011;75919;48.506;8.946;2024-02-15T16:01:38;4.50;;;2.42;;
85508;SDS011;75919;48.506;8.946;2024-02-15T16:04:06;3.35;;;3.05;;
85508;SDS011;75919;48.506;8.946;2024-02-15T16:06:32;4.13;;;3.10;;
85508;SDS011;75919;48.506;8.946;2024-02-15T16:08:58;10.32;;;4.55;;
85508;SDS011;75919;48.506;8.946;2024-02-15T16:11:24;11.93;;;8.27;;
85508;SDS011;75919;48.506;8.946;2024-02-15T16:13:50;10.50;;;7.22;;
85508;SDS011;75919;48.506;8.946;2024-02-15T16:16:19;13.05;;;6.95;;
85508;SDS011;75919;48.506;8.946;2024-02-15T16:18:46;9.73;;;7.20;;
85508;SDS011;75919;48.506;8.946;2024-02-15T16:21:12;15.00;;;11.15;;
85508;SDS011;75919;48.506;8.946;2024-02-15T16:23:37;10.07;;;7.95;;
85508;SDS011;75919;48.506;8.946;2024-02-15T16:26:03;6.30;;;5.70;;
85508;SDS011;75919;48.506;8.946;2024-02-15T16:28:31;7.35;;;5.22;;
85508;SDS011;75919;48.506;8.946;2024-02-15T16:30:56;5.50;;;4.00;;
85508;SDS011;75919;48.506;8.946;2024-02-15T16:33:22;6.72;;;4.38;;
85508;SDS011;75919;48.506;8.946;2024-02-15T16:35:47;10.40;;;6.55;;
85508;SDS011;75919;48.506;8.946;2024-02-15T16:38:13;6.85;;;5.28;;
85508;SDS011;75919;48.506;8.946;2024-02-15T16:40:41;7.60;;;5.05;;
85508;SDS011;75919;48.506;8.946;2024-02-15T16:43:07;6.53;;;5.63;;
85508;SDS011;75919;48.506;8.946;2024-02-15T16:45:33;11.75;;;7.07;;
85508;SDS011;75919;48.506;8.946;2024-02-15T16:47:58;10.32;;;7.82;;
85508;SDS011;75919;48.506;8.946;2024-02-15T16:50:25;12.05;;;9.43;;
85508;SDS011;75919;48.506;8.946;2024-02-15T16:52:51;12.95;;;8.80;;
85508;SDS011;75919;48.506;8.946;2024-02-15T16:55:17;9.23;;;6.43;;
85508;SDS011;75919;48.506;8.946;2024-02-15T16:57:53;8.43;;;5.05;;
85508;SDS011;75919;48.506;8.946;2024-02-15T17:00:25;43.97;;;24.83;;
85508;SDS011;75919;48.506;8.946;2024-02-15T17:02:51;37.40;;;23.60;;
85508;SDS011;75919;48.506;8.946;2024-02-15T17:05:17;31.58;;;19.65;;
85508;SDS011;75919;48.506;8.946;2024-02-15T17:07:43;45.30;;;30.20;;
85508;SDS011;75919;48.506;8.946;2024-02-15T17:10:09;33.40;;;23.38;;
85508;SDS011;75919;48.506;8.946;2024-02-15T17:12:35;25.85;;;17.67;;
85508;SDS011;75919;48.506;8.946;2024-02-15T17:15:01;13.93;;;7.65;;
85508;SDS011;75919;48.506;8.946;2024-02-15T17:17:26;11.88;;;8.25;;
85508;SDS011;75919;48.506;8.946;2024-02-15T17:19:52;17.73;;;12.15;;
85508;SDS011;75919;48.506;8.946;2024-02-15T17:22:18;19.27;;;12.52;;
85508;SDS011;75919;48.506;8.946;2024-02-15T17:24:44;19.02;;;11.88;;
85508;SDS011;75919;48.506;8.946;2024-02-15T17:27:10;21.02;;;13.45;;
85508;SDS011;75919;48.506;8.946;2024-02-15T17:29:36;19.60;;;13.38;;
85508;SDS011;75919;48.506;8.946;2024-02-15T17:32:01;24.05;;;15.38;;
85508;SDS011;75919;48.506;8.946;2024-02-15T17:34:27;23.48;;;14.90;;
85508;SDS011;75919;48.506;8.946;2024-02-15T17:36:55;28.17;;;16.02;;
85508;SDS011;75919;48.506;8.946;2024-02-15T17:39:21;23.67;;;15.85;;
85508;SDS011;75919;48.506;8.946;2024-02-15T17:41:46;27.55;;;16.27;;
85508;SDS011;75919;48.506;8.946;2024-02-15T17:44:13;21.77;;;14.52;;
85508;SDS011;75919;48.506;8.946;2024-02-15T17:46:39;21.10;;;13.07;;
85508;SDS011;75919;48.506;8.946;2024-02-15T17:49:04;19.65;;;12.40;;
85508;SDS011;75919;48.506;8.946;2024-02-15T17:51:33;17.38;;;11.95;;
85508;SDS011;75919;48.506;8.946;2024-02-15T17:53:59;13.85;;;9.50;;
85508;SDS011;75919;48.506;8.946;2024-02-15T17:56:26;11.82;;;9.02;;
85508;SDS011;75919;48.506;8.946;2024-02-15T17:58:52;17.77;;;12.27;;
85508;SDS011;75919;48.506;8.946;2024-02-15T18:01:18;23.60;;;12.52;;
85508;SDS011;75919;48.506;8.946;2024-02-15T18:03:47;18.38;;;11.70;;
85508;SDS011;75919;48.506;8.946;2024-02-15T18:06:14;21.20;;;10.85;;
85508;SDS011;75919;48.506;8.946;2024-02-15T18:08:40;20.67;;;10.95;;
85508;SDS011;75919;48.506;8.946;2024-02-15T18:11:06;19.85;;;11.75;;
85508;SDS011;75919;48.506;8.946;2024-02-15T18:13:33;18.08;;;10.52;;
85508;SDS011;75919;48.506;8.946;2024-02-15T18:16:04;15.15;;;10.57;;
85508;SDS011;75919;48.506;8.946;2024-02-15T18:18:32;15.50;;;10.65;;
85508;SDS011;75919;48.506;8.946;2024-02-15T18:20:58;12.27;;;8.25;;
85508;SDS011;75919;48.506;8.946;2024-02-15T18:23:24;11.88;;;8.57;;
85508;SDS011;75919;48.506;8.946;2024-02-15T18:25:50;12.27;;;8.25;;
85508;SDS011;75919;48.506;8.946;2024-02-15T18:28:15;13.75;;;9.05;;
85508;SDS011;75919;48.506;8.946;2024-02-15T18:30:42;12.48;;;8.38;;
85508;SDS011;75919;48.506;8.946;2024-02-15T18:33:10;11.00;;;7.97;;
85508;SDS011;75919;48.506;8.946;2024-02-15T18:35:37;14.07;;;7.55;;
85508;SDS011;75919;48.506;8.946;2024-02-15T18:38:09;11.68;;;5.22;;
85508;SDS011;75919;48.506;8.946;2024-02-15T18:40:38;5.80;;;4.05;;
85508;SDS011;75919;48.506;8.946;2024-02-15T18:43:04;8.82;;;4.82;;
85508;SDS011;75919;48.506;8.946;2024-02-15T18:45:31;6.43;;;3.88;;
85508;SDS011;75919;48.506;8.946;2024-02-15T18:47:58;9.15;;;5.40;;
85508;SDS011;75919;48.506;8.946;2024-02-15T18:50:25;8.68;;;5.82;;
85508;SDS011;75919;48.506;8.946;2024-02-15T18:52:52;9.25;;;6.70;;
85508;SDS011;75919;48.506;8.946;2024-02-15T18:55:19;12.80;;;7.38;;
85508;SDS011;75919;48.506;8.946;2024-02-15T18:57:46;11.30;;;7.78;;
85508;SDS011;75919;48.506;8.946;2024-02-15T19:00:12;19.50;;;12.18;;
85508;SDS011;75919;48.506;8.946;2024-02-15T19:02:39;11.88;;;9.77;;
85508;SDS011;75919;48.506;8.946;2024-02-15T19:05:05;10.23;;;7.65;;
85508;SDS011;75919;48.506;8.946;2024-02-15T19:07:40;36.75;;;21.50;;
85508;SDS011;75919;48.506;8.946;2024-02-15T19:10:09;33.38;;;19.90;;
85508;SDS011;75919;48.506;8.946;2024-02-15T19:12:35;29.58;;;18.45;;
85508;SDS011;75919;48.506;8.946;2024-02-15T19:15:02;28.17;;;17.77;;
85508;SDS011;75919;48.506;8.946;2024-02-15T19:17:32;16.05;;;11.55;;
85508;SDS011;75919;48.506;8.946;2024-02-15T19:19:59;14.40;;;9.27;;
85508;SDS011;75919;48.506;8.946;2024-02-15T19:22:25;33.60;;;25.58;;
85508;SDS011;75919;48.506;8.946;2024-02-15T19:24:52;22.92;;;16.33;;
85508;SDS011;75919;48.506;8.946;2024-02-15T19:27:18;20.20;;;13.88;;
85508;SDS011;75919;48.506;8.946;2024-02-15T19:29:45;18.55;;;11.07;;
85508;SDS011;75919;48.506;8.946;2024-02-15T19:32:12;21.92;;;12.43;;
85508;SDS011;75919;48.506;8.946;2024-02-15T19:34:38;29.90;;;18.63;;
85508;SDS011;75919;48.506;8.946;2024-02-15T19:37:04;34.40;;;20.50;;
85508;SDS011;75919;48.506;8.946;2024-02-15T19:39:32;25.77;;;15.57;;
85508;SDS011;75919;48.506;8.946;2024-02-15T19:41:58;15.32;;;11.05;;
85508;SDS011;75919;48.506;8.946;2024-02-15T19:44:24;13.98;;;8.65;;
85508;SDS011;75919;48.506;8.946;2024-02-15T19:46:49;12.82;;;7.15;;
85508;SDS011;75919;48.506;8.946;2024-02-15T19:49:15;11.55;;;7.72;;
85508;SDS011;75919;48.506;8.946;2024-02-15T19:51:41;12.77;;;7.93;;
85508;SDS011;75919;48.506;8.946;2024-02-15T19:54:06;14.52;;;8.32;;
85508;SDS011;75919;48.506;8.946;2024-02-15T19:56:32;13.95;;;8.13;;
85508;SDS011;75919;48.506;8.946;2024-02-15T19:58:59;11.55;;;7.85;;
85508;SDS011;75919;48.506;8.946;2024-02-15T20:01:26;7.38;;;6.18;;
85508;SDS011;75919;48.506;8.946;2024-02-15T20:03:55;8.70;;;6.82;;
85508;SDS011;75919;48.506;8.946;2024-02-15T20:06:21;17.92;;;11.77;;
85508;SDS011;75919;48.506;8.946;2024-02-15T20:08:51;27.85;;;16.45;;
85508;SDS011;75919;48.506;8.946;2024-02-15T20:11:17;27.80;;;16.27;;
85508;SDS011;75919;48.506;8.946;2024-02-15T20:13:44;24.98;;;15.00;;
85508;SDS011;75919;48.506;8.946;2024-02-15T20:16:13;29.42;;;18.98;;
85508;SDS011;75919;48.506;8.946;2024-02-15T20:18:39;26.60;;;18.30;;
85508;SDS011;75919;48.506;8.946;2024-02-15T20:21:05;27.40;;;16.90;;
85508;SDS011;75919;48.506;8.946;2024-02-15T20:23:35;27.90;;;18.05;;
85508;SDS011;75919;48.506;8.946;2024-02-15T20:26:04;25.77;;;16.95;;
85508;SDS011;75919;48.506;8.946;2024-02-15T20:28:31;24.15;;;15.38;;
